Time,TemperatureF,DewpointF,PressureIn,WindDirection,WindDirectionDegrees,WindSpeedMPH,WindSpeedGustMPH,Humidity,HourlyPrecipIn,Conditions,Clouds,dailyrainin,SoftwareType,DateUTC
2013-01-02 00:04:00,10.4,5.1,30.33,South,180,0.0,0.0,79,0.00,,,0.00,WUHU216HW,2013-01-02 08:04:00,
2013-01-02 00:09:00,10.4,5.4,30.32,ENE,68,0.2,0.2,80,0.00,,,0.00,WUHU216HW,2013-01-02 08:09:00,
2013-01-02 00:14:00,10.4,5.4,30.32,NE,45,0.0,0.2,80,0.00,,,0.00,WUHU216HW,2013-01-02 08:14:00,
2013-01-02 00:19:00,10.4,5.7,30.32,NNE,23,0.2,0.4,81,0.00,,,0.00,WUHU216HW,2013-01-02 08:19:00,
2013-01-02 00:24:00,10.6,5.9,30.32,North,0,0.2,0.4,81,0.00,,,0.00,WUHU216HW,2013-01-02 08:24:00,
2013-01-02 00:29:00,11.0,6.2,30.31,North,0,0.2,0.4,81,0.00,,,0.00,WUHU216HW,2013-01-02 08:29:00,
2013-01-02 00:34:00,11.2,6.4,30.31,East,90,0.0,0.4,81,0.00,,,0.00,WUHU216HW,2013-01-02 08:34:00,
2013-01-02 00:39:00,11.5,6.8,30.31,NNE,23,0.0,0.4,81,0.00,,,0.00,WUHU216HW,2013-01-02 08:39:00,
2013-01-02 00:44:00,11.7,6.9,30.31,West,270,0.0,0.4,81,0.00,,,0.00,WUHU216HW,2013-01-02 08:44:00,
2013-01-02 00:49:00,11.9,7.1,30.31,West,270,0.2,0.4,81,0.00,,,0.00,WUHU216HW,2013-01-02 08:49:00,
2013-01-02 00:54:00,11.9,7.1,30.30,North,0,0.2,0.4,81,0.00,,,0.00,WUHU216HW,2013-01-02 08:54:00,
2013-01-02 00:59:00,11.9,7.4,30.30,WSW,248,0.2,0.2,82,0.00,,,0.00,WUHU216HW,2013-01-02 08:59:00,
2013-01-02 01:05:00,11.9,7.4,30.30,WNW,293,0.9,0.9,82,0.00,,,0.00,WUHU216HW,2013-01-02 09:05:00,
2013-01-02 01:10:00,11.9,7.4,30.30,NNE,23,0.4,0.9,82,0.00,,,0.00,WUHU216HW,2013-01-02 09:10:00,
2013-01-02 01:15:00,11.9,7.1,30.30,South,180,0.0,0.4,81,0.00,,,0.00,WUHU216HW,2013-01-02 09:15:00,
2013-01-02 01:20:00,11.9,7.1,30.30,North,0,0.0,0.4,81,0.00,,,0.00,WUHU216HW,2013-01-02 09:20:00,
2013-01-02 01:25:00,12.1,7.3,30.30,NNW,338,0.4,0.4,81,0.00,,,0.00,WUHU216HW,2013-01-02 09:25:00,
2013-01-02 01:30:00,12.2,7.7,30.30,SW,225,0.7,0.7,82,0.00,,,0.00,WUHU216HW,2013-01-02 09:30:00,
2013-01-02 01:35:00,12.6,8.1,30.30,NW,315,0.2,0.7,82,0.00,,,0.00,WUHU216HW,2013-01-02 09:35:00,
2013-01-02 01:40:00,12.6,8.1,30.30,North,0,0.0,0.7,82,0.00,,,0.00,WUHU216HW,2013-01-02 09:40:00,
2013-01-02 01:45:00,12.8,8.3,30.30,WNW,293,0.0,0.7,82,0.00,,,0.00,WUHU216HW,2013-01-02 09:45:00,
2013-01-02 01:50:00,13.0,8.5,30.30,NW,315,0.2,0.2,82,0.00,,,0.00,WUHU216HW,2013-01-02 09:50:00,
2013-01-02 01:55:00,12.8,8.3,30.30,West,270,0.0,0.4,82,0.00,,,0.00,WUHU216HW,2013-01-02 09:55:00,
2013-01-02 02:00:00,12.6,7.8,30.30,West,270,0.0,0.4,81,0.00,,,0.00,WUHU216HW,2013-01-02 10:00:00,
2013-01-02 02:05:00,12.1,7.6,30.31,West,270,0.0,0.0,82,0.00,,,0.00,WUHU216HW,2013-01-02 10:05:00,
2013-01-02 02:10:00,12.1,7.6,30.30,West,270,0.0,0.0,82,0.00,,,0.00,WUHU216HW,2013-01-02 10:10:00,
2013-01-02 02:15:00,11.9,7.4,30.31,NW,315,0.0,0.0,82,0.00,,,0.00,WUHU216HW,2013-01-02 10:15:00,
2013-01-02 02:20:00,11.3,6.6,30.31,WSW,248,0.2,0.2,81,0.00,,,0.00,WUHU216HW,2013-01-02 10:20:00,
2013-01-02 02:25:00,11.2,6.4,30.31,WSW,248,0.0,0.2,81,0.00,,,0.00,WUHU216HW,2013-01-02 10:25:00,
2013-01-02 02:30:00,10.8,6.0,30.31,ESE,113,0.0,0.2,81,0.00,,,0.00,WUHU216HW,2013-01-02 10:30:00,
2013-01-02 02:35:00,10.4,5.7,30.31,East,90,0.0,0.2,81,0.00,,,0.00,WUHU216HW,2013-01-02 10:35:00,
2013-01-02 02:41:00,9.7,4.8,30.30,East,90,0.0,0.2,80,0.00,,,0.00,WUHU216HW,2013-01-02 10:41:00,
2013-01-02 02:46:00,9.2,4.2,30.30,East,90,0.0,0.0,80,0.00,,,0.00,WUHU216HW,2013-01-02 10:46:00,
2013-01-02 02:51:00,8.6,3.5,30.30,East,90,0.0,0.0,79,0.00,,,0.00,WUHU216HW,2013-01-02 10:51:00,
2013-01-02 02:56:00,8.3,3.4,30.30,NNE,23,0.0,0.0,80,0.00,,,0.00,WUHU216HW,2013-01-02 10:56:00,
2013-01-02 03:01:00,8.1,3.2,30.30,West,270,0.0,0.0,80,0.00,,,0.00,WUHU216HW,2013-01-02 11:01:00,
2013-01-02 03:06:00,7.9,3.1,30.30,West,270,0.0,0.0,80,0.00,,,0.00,WUHU216HW,2013-01-02 11:06:00,
2013-01-02 03:11:00,7.9,3.1,30.30,West,270,0.0,0.0,80,0.00,,,0.00,WUHU216HW,2013-01-02 11:11:00,
2013-01-02 03:16:00,7.9,3.1,30.30,West,270,0.0,0.0,80,0.00,,,0.00,WUHU216HW,2013-01-02 11:16:00,
2013-01-02 03:21:00,7.6,2.7,30.30,West,270,0.0,0.0,80,0.00,,,0.00,WUHU216HW,2013-01-02 11:21:00,
2013-01-02 03:26:00,7.7,2.9,30.30,ENE,68,0.2,0.2,80,0.00,,,0.00,WUHU216HW,2013-01-02 11:26:00,
2013-01-02 03:31:00,7.9,3.1,30.30,ENE,68,0.0,0.2,80,0.00,,,0.00,WUHU216HW,2013-01-02 11:31:00,
2013-01-02 03:36:00,7.9,3.1,30.30,ENE,68,0.0,0.0,80,0.00,,,0.00,WUHU216HW,2013-01-02 11:36:00,
2013-01-02 03:41:00,7.7,2.9,30.30,ENE,68,0.0,0.0,80,0.00,,,0.00,WUHU216HW,2013-01-02 11:41:00,
2013-01-02 03:46:00,7.7,2.9,30.30,ENE,68,0.0,0.0,80,0.00,,,0.00,WUHU216HW,2013-01-02 11:46:00,
2013-01-02 03:51:00,7.7,2.9,30.30,SE,135,0.0,0.0,80,0.00,,,0.00,WUHU216HW,2013-01-02 11:51:00,
2013-01-02 03:56:00,7.7,2.9,30.30,SE,135,0.0,0.2,80,0.00,,,0.00,WUHU216HW,2013-01-02 11:56:00,
2013-01-02 04:01:00,7.4,2.5,30.30,WSW,248,0.0,0.2,80,0.00,,,0.00,WUHU216HW,2013-01-02 12:01:00,
2013-01-02 04:06:00,6.8,2.0,30.30,West,270,0.0,0.2,80,0.00,,,0.00,WUHU216HW,2013-01-02 12:06:00,
2013-01-02 04:11:00,6.5,1.6,30.30,West,270,0.2,0.4,80,0.00,,,0.00,WUHU216HW,2013-01-02 12:11:00,
2013-01-02 04:16:00,6.5,1.6,30.30,WNW,293,0.0,0.4,80,0.00,,,0.00,WUHU216HW,2013-01-02 12:16:00,
2013-01-02 04:21:00,6.3,1.4,30.30,North,0,0.0,0.4,80,0.00,,,0.00,WUHU216HW,2013-01-02 12:21:00,
2013-01-02 04:26:00,6.3,1.4,30.30,WSW,248,0.0,0.2,80,0.00,,,0.00,WUHU216HW,2013-01-02 12:26:00,
2013-01-02 04:31:00,6.5,1.6,30.30,WSW,248,0.0,0.2,80,0.00,,,0.00,WUHU216HW,2013-01-02 12:31:00,
2013-01-02 04:36:00,6.3,1.4,30.30,WSW,248,0.0,0.0,80,0.00,,,0.00,WUHU216HW,2013-01-02 12:36:00,
2013-01-02 04:41:00,6.3,1.4,30.30,WSW,248,0.2,0.2,80,0.00,,,0.00,WUHU216HW,2013-01-02 12:41:00,
2013-01-02 04:46:00,6.1,1.3,30.30,WSW,248,0.0,0.2,80,0.00,,,0.00,WUHU216HW,2013-01-02 12:46:00,
2013-01-02 04:52:00,6.1,1.3,30.30,SW,225,0.0,0.2,80,0.00,,,0.00,WUHU216HW,2013-01-02 12:52:00,
2013-01-02 04:57:00,6.1,1.3,30.30,SW,225,0.0,0.0,80,0.00,,,0.00,WUHU216HW,2013-01-02 12:57:00,
2013-01-02 05:02:00,6.1,1.3,30.30,SW,225,0.0,0.0,80,0.00,,,0.00,WUHU216HW,2013-01-02 13:02:00,
2013-01-02 05:07:00,5.9,1.4,30.30,SW,225,0.0,0.0,81,0.00,,,0.00,WUHU216HW,2013-01-02 13:07:00,
2013-01-02 05:12:00,5.9,1.4,30.29,SW,225,0.0,0.0,81,0.00,,,0.00,WUHU216HW,2013-01-02 13:12:00,
2013-01-02 05:17:00,5.8,1.2,30.29,SW,225,0.0,0.0,81,0.00,,,0.00,WUHU216HW,2013-01-02 13:17:00,
2013-01-02 05:22:00,5.6,1.0,30.29,SW,225,0.0,0.0,81,0.00,,,0.00,WUHU216HW,2013-01-02 13:22:00,
2013-01-02 05:27:00,5.4,0.8,30.29,SW,225,0.0,0.0,81,0.00,,,0.00,WUHU216HW,2013-01-02 13:27:00,
2013-01-02 05:32:00,5.4,0.8,30.29,SW,225,0.0,0.0,81,0.00,,,0.00,WUHU216HW,2013-01-02 13:32:00,
2013-01-02 05:37:00,5.4,0.5,30.29,SW,225,0.0,0.0,80,0.00,,,0.00,WUHU216HW,2013-01-02 13:37:00,
2013-01-02 05:42:00,5.4,0.5,30.30,SE,135,0.0,0.0,80,0.00,,,0.00,WUHU216HW,2013-01-02 13:42:00,
2013-01-02 05:47:00,5.4,0.8,30.30,South,180,0.0,0.0,81,0.00,,,0.00,WUHU216HW,2013-01-02 13:47:00,
2013-01-02 05:52:00,5.2,0.6,30.30,South,180,0.0,0.0,81,0.00,,,0.00,WUHU216HW,2013-01-02 13:52:00,
2013-01-02 05:57:00,5.4,0.5,30.30,South,180,0.0,0.0,80,0.00,,,0.00,WUHU216HW,2013-01-02 13:57:00,
2013-01-02 06:03:00,5.4,0.5,30.30,SSW,203,0.0,0.0,80,0.00,,,0.00,WUHU216HW,2013-01-02 14:03:00,
2013-01-02 06:08:00,5.4,0.5,30.29,SW,225,0.0,0.0,80,0.00,,,0.00,WUHU216HW,2013-01-02 14:08:00,
2013-01-02 06:13:00,5.4,0.8,30.30,South,180,0.0,0.0,81,0.00,,,0.00,WUHU216HW,2013-01-02 14:13:00,
2013-01-02 06:18:00,5.4,0.5,30.29,SE,135,0.0,0.0,80,0.00,,,0.00,WUHU216HW,2013-01-02 14:18:00,
2013-01-02 06:23:00,5.4,0.8,30.29,East,90,0.0,0.0,81,0.00,,,0.00,WUHU216HW,2013-01-02 14:23:00,
2013-01-02 06:28:00,5.4,0.8,30.30,East,90,0.0,0.2,81,0.00,,,0.00,WUHU216HW,2013-01-02 14:28:00,
2013-01-02 06:33:00,5.4,0.8,30.30,ESE,113,0.2,0.2,81,0.00,,,0.00,WUHU216HW,2013-01-02 14:33:00,
2013-01-02 06:38:00,5.4,0.8,30.30,East,90,0.0,0.2,81,0.00,,,0.00,WUHU216HW,2013-01-02 14:38:00,
2013-01-02 06:43:00,5.4,0.5,30.30,WSW,248,0.2,0.2,80,0.00,,,0.00,WUHU216HW,2013-01-02 14:43:00,
2013-01-02 06:48:00,5.4,0.8,30.30,SSW,203,0.0,0.2,81,0.00,,,0.00,WUHU216HW,2013-01-02 14:48:00,
2013-01-02 06:53:00,5.4,0.8,30.30,South,180,0.0,0.2,81,0.00,,,0.00,WUHU216HW,2013-01-02 14:53:00,
2013-01-02 06:58:00,5.6,1.0,30.30,ENE,68,0.0,0.2,81,0.00,,,0.00,WUHU216HW,2013-01-02 14:58:00,
2013-01-02 07:03:00,5.6,1.0,30.30,East,90,0.0,0.2,81,0.00,,,0.00,WUHU216HW,2013-01-02 15:03:00,
2013-01-02 07:08:00,5.6,0.7,30.30,East,90,0.0,0.2,80,0.00,,,0.00,WUHU216HW,2013-01-02 15:08:00,
2013-01-02 07:13:00,5.4,0.5,30.30,ENE,68,0.0,0.0,80,0.00,,,0.00,WUHU216HW,2013-01-02 15:13:00,
2013-01-02 07:18:00,5.4,0.5,30.30,ENE,68,0.0,0.0,80,0.00,,,0.00,WUHU216HW,2013-01-02 15:18:00,
2013-01-02 07:23:00,5.4,0.5,30.30,ENE,68,0.0,0.0,80,0.00,,,0.00,WUHU216HW,2013-01-02 15:23:00,
2013-01-02 07:28:00,5.4,0.5,30.30,West,270,0.2,0.2,80,0.00,,,0.00,WUHU216HW,2013-01-02 15:28:00,
2013-01-02 07:33:00,5.4,0.5,30.30,West,270,0.2,0.2,80,0.00,,,0.00,WUHU216HW,2013-01-02 15:33:00,
2013-01-02 07:38:00,5.4,0.5,30.30,ENE,68,0.0,0.2,80,0.00,,,0.00,WUHU216HW,2013-01-02 15:38:00,
2013-01-02 07:43:00,5.4,0.5,30.30,ENE,68,0.0,0.0,80,0.00,,,0.00,WUHU216HW,2013-01-02 15:43:00,
2013-01-02 07:48:00,5.4,0.5,30.30,ENE,68,0.0,0.0,80,0.00,,,0.00,WUHU216HW,2013-01-02 15:48:00,
2013-01-02 07:53:00,5.4,0.5,30.30,NE,45,0.0,0.0,80,0.00,,,0.00,WUHU216HW,2013-01-02 15:53:00,
2013-01-02 07:58:00,5.6,0.7,30.30,NE,45,0.0,0.0,80,0.00,,,0.00,WUHU216HW,2013-01-02 15:58:00,
2013-01-02 08:03:00,5.6,0.7,30.30,NE,45,0.0,0.0,80,0.00,,,0.00,WUHU216HW,2013-01-02 16:03:00,
2013-01-02 08:08:00,5.8,1.2,30.30,East,90,0.0,0.0,81,0.00,,,0.00,WUHU216HW,2013-01-02 16:08:00,
2013-01-02 08:14:00,5.9,1.4,30.30,East,90,0.0,0.0,81,0.00,,,0.00,WUHU216HW,2013-01-02 16:14:00,
2013-01-02 08:19:00,5.9,1.4,30.30,SSE,158,0.0,0.0,81,0.00,,,0.00,WUHU216HW,2013-01-02 16:19:00,
2013-01-02 08:24:00,6.1,1.5,30.30,SSE,158,0.0,0.0,81,0.00,,,0.00,WUHU216HW,2013-01-02 16:24:00,
2013-01-02 08:29:00,6.1,1.5,30.30,SSE,158,0.0,0.0,81,0.00,,,0.00,WUHU216HW,2013-01-02 16:29:00,
2013-01-02 08:34:00,6.3,2.0,30.30,SSW,203,0.0,0.2,82,0.00,,,0.00,WUHU216HW,2013-01-02 16:34:00,
2013-01-02 08:39:00,6.5,2.2,30.30,SSW,203,0.2,0.4,82,0.00,,,0.00,WUHU216HW,2013-01-02 16:39:00,
2013-01-02 08:44:00,6.7,2.4,30.30,SSW,203,0.2,0.4,82,0.00,,,0.00,WUHU216HW,2013-01-02 16:44:00,
2013-01-02 08:49:00,6.8,2.3,30.30,SW,225,0.0,0.4,81,0.00,,,0.00,WUHU216HW,2013-01-02 16:49:00,
2013-01-02 08:54:00,7.0,2.7,30.30,SW,225,0.2,0.4,82,0.00,,,0.00,WUHU216HW,2013-01-02 16:54:00,
2013-01-02 08:59:00,7.4,3.1,30.30,SSW,203,0.4,0.4,82,0.00,,,0.00,WUHU216HW,2013-01-02 16:59:00,
2013-01-02 09:04:00,7.6,3.3,30.31,SSW,203,0.0,0.4,82,0.00,,,0.00,WUHU216HW,2013-01-02 17:04:00,
2013-01-02 09:09:00,7.6,3.3,30.31,SW,225,0.2,0.4,82,0.00,,,0.00,WUHU216HW,2013-01-02 17:09:00,
2013-01-02 09:14:00,7.6,3.3,30.31,SSW,203,0.0,0.4,82,0.00,,,0.00,WUHU216HW,2013-01-02 17:14:00,
2013-01-02 09:19:00,7.9,3.6,30.31,SW,225,0.4,0.4,82,0.00,,,0.00,WUHU216HW,2013-01-02 17:19:00,
2013-01-02 09:24:00,8.3,4.0,30.32,SW,225,0.0,0.4,82,0.00,,,0.00,WUHU216HW,2013-01-02 17:24:00,
2013-01-02 09:29:00,8.3,4.0,30.32,SSW,203,0.4,0.4,82,0.00,,,0.00,WUHU216HW,2013-01-02 17:29:00,
2013-01-02 09:34:00,8.6,4.3,30.32,SSW,203,0.2,0.4,82,0.00,,,0.00,WUHU216HW,2013-01-02 17:34:00,
2013-01-02 09:39:00,9.0,4.6,30.32,SSW,203,0.2,0.4,82,0.00,,,0.00,WUHU216HW,2013-01-02 17:39:00,
2013-01-02 09:44:00,9.4,5.0,30.32,South,180,0.0,0.4,82,0.00,,,0.00,WUHU216HW,2013-01-02 17:44:00,
2013-01-02 09:49:00,9.7,5.3,30.32,SSW,203,0.2,0.4,82,0.00,,,0.00,WUHU216HW,2013-01-02 17:49:00,
2013-01-02 09:54:00,10.1,5.6,30.32,SSW,203,0.2,0.4,82,0.00,,,0.00,WUHU216HW,2013-01-02 17:54:00,
2013-01-02 09:59:00,10.4,5.9,30.32,WSW,248,0.4,0.4,82,0.00,,,0.00,WUHU216HW,2013-01-02 17:59:00,
2013-01-02 10:04:00,10.8,6.3,30.32,WSW,248,0.2,0.9,82,0.00,,,0.00,WUHU216HW,2013-01-02 18:04:00,
2013-01-02 10:09:00,11.0,6.5,30.32,SSE,158,0.2,0.9,82,0.00,,,0.00,WUHU216HW,2013-01-02 18:09:00,
2013-01-02 10:14:00,11.3,6.8,30.32,SSE,158,0.0,0.7,82,0.00,,,0.00,WUHU216HW,2013-01-02 18:14:00,
2013-01-02 10:19:00,11.7,7.2,30.32,South,180,0.4,1.1,82,0.00,,,0.00,WUHU216HW,2013-01-02 18:19:00,
2013-01-02 10:24:00,12.1,7.6,30.32,South,180,0.4,1.1,82,0.00,,,0.00,WUHU216HW,2013-01-02 18:24:00,
2013-01-02 10:29:00,12.4,7.7,30.32,WSW,248,0.0,0.7,81,0.00,,,0.00,WUHU216HW,2013-01-02 18:29:00,
2013-01-02 10:34:00,12.6,7.8,30.32,SSW,203,0.7,0.9,81,0.00,,,0.00,WUHU216HW,2013-01-02 18:34:00,
2013-01-02 10:39:00,13.0,8.5,30.32,SSW,203,0.9,1.1,82,0.00,,,0.00,WUHU216HW,2013-01-02 18:39:00,
2013-01-02 10:44:00,13.3,8.8,30.31,South,180,0.4,1.3,82,0.00,,,0.00,WUHU216HW,2013-01-02 18:44:00,
2013-01-02 10:49:00,13.3,8.6,30.31,SSE,158,0.2,2.0,81,0.00,,,0.00,WUHU216HW,2013-01-02 18:49:00,
2013-01-02 10:54:00,13.1,8.4,30.31,NW,315,0.9,2.0,81,0.00,,,0.00,WUHU216HW,2013-01-02 18:54:00,
2013-01-02 10:59:00,13.3,8.6,30.31,SW,225,0.4,1.8,81,0.00,,,0.00,WUHU216HW,2013-01-02 18:59:00,
2013-01-02 11:04:00,13.1,8.1,30.31,West,270,0.2,1.8,80,0.00,,,0.00,WUHU216HW,2013-01-02 19:04:00,
2013-01-02 11:09:00,13.1,8.4,30.31,WNW,293,0.2,2.7,81,0.00,,,0.00,WUHU216HW,2013-01-02 19:09:00,
2013-01-02 11:14:00,13.1,8.4,30.31,NNW,338,0.0,2.7,81,0.00,,,0.00,WUHU216HW,2013-01-02 19:14:00,
2013-01-02 11:19:00,13.7,8.9,30.30,NNW,338,0.4,3.1,81,0.00,,,0.00,WUHU216HW,2013-01-02 19:19:00,
2013-01-02 11:24:00,13.9,9.1,30.30,WNW,293,1.6,3.1,81,0.00,,,0.00,WUHU216HW,2013-01-02 19:24:00,
2013-01-02 11:29:00,13.7,8.9,30.30,WSW,248,0.7,1.8,81,0.00,,,0.00,WUHU216HW,2013-01-02 19:29:00,
2013-01-02 11:35:00,13.9,9.1,30.30,North,0,2.5,2.5,81,0.00,,,0.00,WUHU216HW,2013-01-02 19:35:00,
2013-01-02 11:40:00,14.0,9.3,30.30,NW,315,1.1,2.5,81,0.00,,,0.00,WUHU216HW,2013-01-02 19:40:00,
2013-01-02 11:45:00,14.6,9.8,30.30,NW,315,0.9,1.8,81,0.00,,,0.00,WUHU216HW,2013-01-02 19:45:00,
2013-01-02 11:50:00,14.8,10.0,30.30,SW,225,0.9,2.0,81,0.00,,,0.00,WUHU216HW,2013-01-02 19:50:00,
2013-01-02 11:55:00,15.1,10.1,30.29,South,180,2.2,2.2,80,0.00,,,0.00,WUHU216HW,2013-01-02 19:55:00,
2013-01-02 12:00:00,15.5,10.7,30.29,SE,135,0.7,2.2,81,0.00,,,0.00,WUHU216HW,2013-01-02 20:00:00,
2013-01-02 12:05:00,16.0,11.0,30.29,SSE,158,0.9,2.5,80,0.00,,,0.00,WUHU216HW,2013-01-02 20:05:00,
2013-01-02 12:10:00,16.2,11.2,30.29,SSE,158,2.5,2.5,80,0.00,,,0.00,WUHU216HW,2013-01-02 20:10:00,
2013-01-02 12:15:00,16.4,11.0,30.29,SSE,158,1.3,3.6,79,0.00,,,0.00,WUHU216HW,2013-01-02 20:15:00,
2013-01-02 12:20:00,16.6,11.2,30.28,South,180,0.4,3.6,79,0.00,,,0.00,WUHU216HW,2013-01-02 20:20:00,
2013-01-02 12:25:00,16.9,11.5,30.28,NNE,23,1.1,2.7,79,0.00,,,0.00,WUHU216HW,2013-01-02 20:25:00,
2013-01-02 12:30:00,16.6,10.9,30.28,East,90,3.4,3.4,78,0.00,,,0.00,WUHU216HW,2013-01-02 20:30:00,
2013-01-02 12:35:00,16.6,11.2,30.28,SSE,158,2.5,3.6,79,0.00,,,0.00,WUHU216HW,2013-01-02 20:35:00,
2013-01-02 12:40:00,16.7,11.4,30.28,SSE,158,0.9,3.6,79,0.00,,,0.00,WUHU216HW,2013-01-02 20:40:00,
2013-01-02 12:45:00,16.6,10.9,30.28,SSW,203,0.4,1.6,78,0.00,,,0.00,WUHU216HW,2013-01-02 20:45:00,
2013-01-02 12:50:00,16.4,11.0,30.28,SW,225,1.6,2.5,79,0.00,,,0.00,WUHU216HW,2013-01-02 20:50:00,
2013-01-02 12:55:00,16.9,11.8,30.27,SE,135,0.4,2.5,80,0.00,,,0.00,WUHU216HW,2013-01-02 20:55:00,
2013-01-02 13:00:00,17.1,11.6,30.27,WSW,248,1.3,1.8,79,0.00,,,0.00,WUHU216HW,2013-01-02 21:00:00,
2013-01-02 13:05:00,16.9,11.2,30.27,SSW,203,0.9,2.0,78,0.00,,,0.00,WUHU216HW,2013-01-02 21:05:00,
2013-01-02 13:10:00,16.9,11.2,30.27,SSW,203,0.2,2.2,78,0.00,,,0.00,WUHU216HW,2013-01-02 21:10:00,
2013-01-02 13:15:00,16.9,11.2,30.27,NW,315,1.1,2.2,78,0.00,,,0.00,WUHU216HW,2013-01-02 21:15:00,
2013-01-02 13:20:00,16.6,10.9,30.27,West,270,1.1,2.0,78,0.00,,,0.00,WUHU216HW,2013-01-02 21:20:00,
2013-01-02 13:25:00,16.2,10.8,30.27,WNW,293,1.6,2.2,79,0.00,,,0.00,WUHU216HW,2013-01-02 21:25:00,
2013-01-02 13:30:00,16.0,10.4,30.27,NW,315,0.2,2.7,78,0.00,,,0.00,WUHU216HW,2013-01-02 21:30:00,
2013-01-02 13:35:00,16.2,10.8,30.27,West,270,0.7,3.8,79,0.00,,,0.00,WUHU216HW,2013-01-02 21:35:00,
2013-01-02 13:40:00,16.2,10.8,30.27,North,0,1.1,3.8,79,0.00,,,0.00,WUHU216HW,2013-01-02 21:40:00,
2013-01-02 13:45:00,16.0,10.6,30.27,NW,315,0.7,2.2,79,0.00,,,0.00,WUHU216HW,2013-01-02 21:45:00,
2013-01-02 13:50:00,15.5,10.2,30.27,NW,315,3.1,3.4,79,0.00,,,0.00,WUHU216HW,2013-01-02 21:50:00,
2013-01-02 13:55:00,15.3,10.0,30.26,North,0,0.9,3.4,79,0.00,,,0.00,WUHU216HW,2013-01-02 21:55:00,
2013-01-02 14:00:00,15.5,10.2,30.26,NNE,23,3.4,3.4,79,0.00,,,0.00,WUHU216HW,2013-01-02 22:00:00,
2013-01-02 14:05:00,15.5,10.2,30.27,SE,135,0.2,3.4,79,0.00,,,0.00,WUHU216HW,2013-01-02 22:05:00,
2013-01-02 14:11:00,15.8,10.8,30.27,North,0,1.3,1.6,80,0.00,,,0.00,WUHU216HW,2013-01-02 22:11:00,
2013-01-02 14:16:00,16.2,10.8,30.27,NNE,23,1.3,1.8,79,0.00,,,0.00,WUHU216HW,2013-01-02 22:16:00,
2013-01-02 14:21:00,16.2,11.2,30.27,NNE,23,0.0,1.8,80,0.00,,,0.00,WUHU216HW,2013-01-02 22:21:00,
2013-01-02 14:26:00,16.2,10.8,30.27,West,270,0.2,2.0,79,0.00,,,0.00,WUHU216HW,2013-01-02 22:26:00,
2013-01-02 14:31:00,15.7,10.4,30.27,NNW,338,1.3,2.9,79,0.00,,,0.00,WUHU216HW,2013-01-02 22:31:00,
2013-01-02 14:36:00,15.1,9.8,30.27,West,270,0.4,3.8,79,0.00,,,0.00,WUHU216HW,2013-01-02 22:36:00,
2013-01-02 14:41:00,15.5,10.4,30.27,NW,315,0.4,3.8,80,0.00,,,0.00,WUHU216HW,2013-01-02 22:41:00,
2013-01-02 14:46:00,15.5,10.2,30.27,NNE,23,1.3,2.0,79,0.00,,,0.00,WUHU216HW,2013-01-02 22:46:00,
2013-01-02 14:51:00,15.1,9.8,30.27,North,0,1.1,2.9,79,0.00,,,0.00,WUHU216HW,2013-01-02 22:51:00,
2013-01-02 14:56:00,14.9,9.9,30.27,NNW,338,2.5,2.9,80,0.00,,,0.00,WUHU216HW,2013-01-02 22:56:00,
2013-01-02 15:01:00,15.3,10.3,30.27,WNW,293,0.4,2.5,80,0.00,,,0.00,WUHU216HW,2013-01-02 23:01:00,
2013-01-02 15:06:00,15.5,10.4,30.27,North,0,0.4,1.8,80,0.00,,,0.00,WUHU216HW,2013-01-02 23:06:00,
2013-01-02 15:11:00,15.3,10.0,30.27,West,270,0.4,1.8,79,0.00,,,0.00,WUHU216HW,2013-01-02 23:11:00,
2013-01-02 15:16:00,15.3,10.3,30.27,NW,315,0.9,1.8,80,0.00,,,0.00,WUHU216HW,2013-01-02 23:16:00,
2013-01-02 15:21:00,15.3,10.0,30.27,WNW,293,1.1,2.5,79,0.00,,,0.00,WUHU216HW,2013-01-02 23:21:00,
2013-01-02 15:26:00,15.3,10.0,30.27,NNE,23,4.7,4.7,79,0.00,,,0.00,WUHU216HW,2013-01-02 23:26:00,
2013-01-02 15:31:00,15.1,9.8,30.27,NNE,23,2.0,5.1,79,0.00,,,0.00,WUHU216HW,2013-01-02 23:31:00,
2013-01-02 15:36:00,14.9,9.6,30.27,NE,45,2.2,5.1,79,0.00,,,0.00,WUHU216HW,2013-01-02 23:36:00,
2013-01-02 15:41:00,14.8,9.5,30.27,North,0,0.4,2.9,79,0.00,,,0.00,WUHU216HW,2013-01-02 23:41:00,
2013-01-02 15:46:00,14.4,9.1,30.27,NNW,338,1.8,5.6,79,0.00,,,0.00,WUHU216HW,2013-01-02 23:46:00,
2013-01-02 15:51:00,14.0,9.0,30.27,NNE,23,2.9,5.6,80,0.00,,,0.00,WUHU216HW,2013-01-02 23:51:00,
2013-01-02 15:56:00,13.9,8.8,30.27,NW,315,0.7,3.1,80,0.00,,,0.00,WUHU216HW,2013-01-02 23:56:00,
2013-01-02 16:01:00,13.1,8.6,30.27,NW,315,3.8,3.8,82,0.00,,,0.00,WUHU216HW,2013-01-03 00:01:00,
2013-01-02 16:07:00,12.4,7.9,30.27,NW,315,1.6,3.8,82,0.00,,,0.00,WUHU216HW,2013-01-03 00:07:00,
2013-01-02 16:12:00,12.2,7.7,30.28,NW,315,1.3,2.9,82,0.00,,,0.00,WUHU216HW,2013-01-03 00:12:00,
2013-01-02 16:17:00,12.1,7.6,30.28,SSE,158,0.2,2.0,82,0.00,,,0.00,WUHU216HW,2013-01-03 00:17:00,
2013-01-02 16:22:00,12.4,7.9,30.28,SSW,203,0.2,0.7,82,0.00,,,0.00,WUHU216HW,2013-01-03 00:22:00,
2013-01-02 16:27:00,12.6,8.1,30.28,West,270,0.2,0.2,82,0.00,,,0.00,WUHU216HW,2013-01-03 00:27:00,
2013-01-02 16:32:00,12.6,8.1,30.28,NW,315,0.0,0.7,82,0.00,,,0.00,WUHU216HW,2013-01-03 00:32:00,
2013-01-02 16:37:00,12.4,7.9,30.28,SW,225,0.0,1.1,82,0.00,,,0.00,WUHU216HW,2013-01-03 00:37:00,
2013-01-02 16:42:00,12.2,7.7,30.27,NW,315,0.2,1.1,82,0.00,,,0.00,WUHU216HW,2013-01-03 00:42:00,
2013-01-02 16:47:00,11.3,7.7,30.27,NW,315,0.9,2.5,85,0.00,,,0.00,WUHU216HW,2013-01-03 00:47:00,
2013-01-02 16:52:00,11.0,7.3,30.27,NE,45,0.2,2.5,85,0.00,,,0.00,WUHU216HW,2013-01-03 00:52:00,
2013-01-02 16:57:00,11.2,7.5,30.27,NE,45,0.0,0.9,85,0.00,,,0.00,WUHU216HW,2013-01-03 00:57:00,
2013-01-02 17:02:00,11.5,7.6,30.27,East,90,0.2,0.4,84,0.00,,,0.00,WUHU216HW,2013-01-03 01:02:00,
2013-01-02 17:07:00,11.9,7.9,30.27,North,0,0.4,0.4,84,0.00,,,0.00,WUHU216HW,2013-01-03 01:07:00,
2013-01-02 17:12:00,11.9,7.9,30.27,North,0,1.1,1.1,84,0.00,,,0.00,WUHU216HW,2013-01-03 01:12:00,
2013-01-02 17:17:00,11.9,7.7,30.27,NNW,338,0.0,1.1,83,0.00,,,0.00,WUHU216HW,2013-01-03 01:17:00,
2013-01-02 17:22:00,11.9,7.7,30.27,NE,45,0.2,0.7,83,0.00,,,0.00,WUHU216HW,2013-01-03 01:22:00,
2013-01-02 17:27:00,11.9,7.7,30.27,ENE,68,0.4,0.4,83,0.00,,,0.00,WUHU216HW,2013-01-03 01:27:00,
2013-01-02 17:32:00,11.9,7.7,30.27,East,90,0.4,0.4,83,0.00,,,0.00,WUHU216HW,2013-01-03 01:32:00,
2013-01-02 17:37:00,12.1,7.8,30.27,NE,45,0.9,1.6,83,0.00,,,0.00,WUHU216HW,2013-01-03 01:37:00,
2013-01-02 17:42:00,11.9,7.7,30.27,NNE,23,0.4,1.6,83,0.00,,,0.00,WUHU216HW,2013-01-03 01:42:00,
2013-01-02 17:47:00,11.7,7.5,30.27,NNW,338,0.2,0.4,83,0.00,,,0.00,WUHU216HW,2013-01-03 01:47:00,
2013-01-02 17:52:00,11.5,7.3,30.27,NW,315,0.4,0.4,83,0.00,,,0.00,WUHU216HW,2013-01-03 01:52:00,
2013-01-02 17:57:00,11.2,6.9,30.27,North,0,0.0,0.4,83,0.00,,,0.00,WUHU216HW,2013-01-03 01:57:00,
2013-01-02 18:02:00,11.2,6.9,30.27,NNE,23,0.0,0.2,83,0.00,,,0.00,WUHU216HW,2013-01-03 02:02:00,
2013-01-02 18:07:00,11.2,6.9,30.27,NW,315,0.2,0.4,83,0.00,,,0.00,WUHU216HW,2013-01-03 02:07:00,
2013-01-02 18:12:00,11.2,6.9,30.27,North,0,0.0,0.4,83,0.00,,,0.00,WUHU216HW,2013-01-03 02:12:00,
2013-01-02 18:17:00,11.2,6.9,30.27,NNW,338,0.0,0.4,83,0.00,,,0.00,WUHU216HW,2013-01-03 02:17:00,
2013-01-02 18:22:00,11.2,6.9,30.27,South,180,0.0,0.2,83,0.00,,,0.00,WUHU216HW,2013-01-03 02:22:00,
2013-01-02 18:27:00,11.2,6.9,30.27,NW,315,0.0,0.4,83,0.00,,,0.00,WUHU216HW,2013-01-03 02:27:00,
2013-01-02 18:32:00,11.2,6.9,30.27,ENE,68,0.0,0.4,83,0.00,,,0.00,WUHU216HW,2013-01-03 02:32:00,
2013-01-02 18:37:00,11.2,6.9,30.27,North,0,0.2,0.2,83,0.00,,,0.00,WUHU216HW,2013-01-03 02:37:00,
2013-01-02 18:42:00,11.2,6.9,30.26,WNW,293,0.2,0.9,83,0.00,,,0.00,WUHU216HW,2013-01-03 02:42:00,
2013-01-02 18:47:00,11.2,6.9,30.26,NW,315,0.0,0.9,83,0.00,,,0.00,WUHU216HW,2013-01-03 02:47:00,
2013-01-02 18:52:00,11.2,6.9,30.26,West,270,0.0,0.2,83,0.00,,,0.00,WUHU216HW,2013-01-03 02:52:00,
2013-01-02 18:57:00,10.8,6.8,30.26,NW,315,0.4,0.9,84,0.00,,,0.00,WUHU216HW,2013-01-03 02:57:00,
2013-01-02 19:03:00,10.6,6.7,30.26,West,270,0.4,0.9,84,0.00,,,0.00,WUHU216HW,2013-01-03 03:03:00,
2013-01-02 19:08:00,10.8,6.8,30.26,WSW,248,0.0,0.4,84,0.00,,,0.00,WUHU216HW,2013-01-03 03:08:00,
2013-01-02 19:13:00,10.8,6.8,30.26,WNW,293,0.0,0.4,84,0.00,,,0.00,WUHU216HW,2013-01-03 03:13:00,
2013-01-02 19:18:00,11.0,7.0,30.26,West,270,0.0,0.0,84,0.00,,,0.00,WUHU216HW,2013-01-03 03:18:00,
2013-01-02 19:23:00,11.2,7.2,30.25,WSW,248,0.4,0.4,84,0.00,,,0.00,WUHU216HW,2013-01-03 03:23:00,
2013-01-02 19:28:00,11.3,7.4,30.25,West,270,0.4,0.4,84,0.00,,,0.00,WUHU216HW,2013-01-03 03:28:00,
2013-01-02 19:33:00,11.3,7.1,30.25,NW,315,0.4,0.4,83,0.00,,,0.00,WUHU216HW,2013-01-03 03:33:00,
2013-01-02 19:38:00,11.0,6.8,30.25,WNW,293,0.0,0.4,83,0.00,,,0.00,WUHU216HW,2013-01-03 03:38:00,
2013-01-02 19:43:00,11.0,7.0,30.25,West,270,0.0,0.4,84,0.00,,,0.00,WUHU216HW,2013-01-03 03:43:00,
2013-01-02 19:48:00,11.2,7.2,30.25,WSW,248,0.0,0.0,84,0.00,,,0.00,WUHU216HW,2013-01-03 03:48:00,
2013-01-02 19:53:00,11.2,7.2,30.25,WNW,293,0.0,0.2,84,0.00,,,0.00,WUHU216HW,2013-01-03 03:53:00,
2013-01-02 19:58:00,11.3,7.4,30.25,NW,315,0.0,0.2,84,0.00,,,0.00,WUHU216HW,2013-01-03 03:58:00,
2013-01-02 20:03:00,11.3,7.4,30.25,WNW,293,0.0,0.2,84,0.00,,,0.00,WUHU216HW,2013-01-03 04:03:00,
2013-01-02 20:09:00,11.3,7.4,30.25,SW,225,0.0,0.2,84,0.00,,,0.00,WUHU216HW,2013-01-03 04:09:00,
2013-01-02 20:14:00,11.3,7.4,30.25,West,270,0.0,0.2,84,0.00,,,0.00,WUHU216HW,2013-01-03 04:14:00,
2013-01-02 20:19:00,11.5,7.6,30.25,West,270,0.0,0.0,84,0.00,,,0.00,WUHU216HW,2013-01-03 04:19:00,
2013-01-02 20:24:00,11.5,7.3,30.25,WNW,293,0.0,0.2,83,0.00,,,0.00,WUHU216HW,2013-01-03 04:24:00,
2013-01-02 20:29:00,11.5,7.3,30.25,NW,315,0.2,0.2,83,0.00,,,0.00,WUHU216HW,2013-01-03 04:29:00,
2013-01-02 20:34:00,11.5,7.3,30.25,NNW,338,0.4,0.4,83,0.00,,,0.00,WUHU216HW,2013-01-03 04:34:00,
2013-01-02 20:39:00,11.5,7.3,30.25,WSW,248,0.7,1.1,83,0.00,,,0.00,WUHU216HW,2013-01-03 04:39:00,
2013-01-02 20:44:00,11.7,7.5,30.25,West,270,0.0,1.1,83,0.00,,,0.00,WUHU216HW,2013-01-03 04:44:00,
2013-01-02 20:49:00,11.3,7.1,30.25,WSW,248,0.2,0.9,83,0.00,,,0.00,WUHU216HW,2013-01-03 04:49:00,
2013-01-02 20:54:00,11.3,7.1,30.25,West,270,0.2,0.9,83,0.00,,,0.00,WUHU216HW,2013-01-03 04:54:00,
2013-01-02 20:59:00,11.5,7.3,30.24,West,270,0.2,0.4,83,0.00,,,0.00,WUHU216HW,2013-01-03 04:59:00,
2013-01-02 21:00:00,11.7,7.5,30.25,West,270,0.4,0.4,83,0.00,,,0.00,WUHU216HW,2013-01-03 05:00:00,
2013-01-02 21:02:00,11.7,7.7,30.24,West,270,0.4,0.4,84,0.00,,,0.00,WUHU216HW,2013-01-03 05:02:00,
2013-01-02 21:03:00,11.9,7.7,30.24,WSW,248,0.4,0.4,83,0.00,,,0.00,WUHU216HW,2013-01-03 05:03:00,
2013-01-02 21:08:00,11.9,7.7,30.24,West,270,0.0,0.4,83,0.00,,,0.00,WUHU216HW,2013-01-03 05:08:00,
2013-01-02 21:13:00,11.7,7.5,30.24,WNW,293,0.0,0.4,83,0.00,,,0.00,WUHU216HW,2013-01-03 05:13:00,
2013-01-02 21:18:00,11.7,7.5,30.24,SW,225,0.2,0.4,83,0.00,,,0.00,WUHU216HW,2013-01-03 05:18:00,
2013-01-02 21:23:00,11.7,7.5,30.24,NNW,338,0.4,0.4,83,0.00,,,0.00,WUHU216HW,2013-01-03 05:23:00,
2013-01-02 21:28:00,11.3,7.1,30.24,WSW,248,0.4,0.4,83,0.00,,,0.00,WUHU216HW,2013-01-03 05:28:00,
2013-01-02 21:33:00,11.2,6.9,30.24,West,270,0.0,0.4,83,0.00,,,0.00,WUHU216HW,2013-01-03 05:33:00,
2013-01-02 21:39:00,11.2,6.9,30.24,WSW,248,0.2,0.4,83,0.00,,,0.00,WUHU216HW,2013-01-03 05:39:00,
2013-01-02 21:44:00,11.2,6.9,30.24,West,270,0.4,1.3,83,0.00,,,0.00,WUHU216HW,2013-01-03 05:44:00,
2013-01-02 21:49:00,11.2,6.9,30.24,West,270,0.7,1.3,83,0.00,,,0.00,WUHU216HW,2013-01-03 05:49:00,
2013-01-02 21:54:00,11.2,6.9,30.24,West,270,0.2,1.1,83,0.00,,,0.00,WUHU216HW,2013-01-03 05:54:00,
2013-01-02 21:59:00,11.2,6.9,30.24,WSW,248,0.4,0.4,83,0.00,,,0.00,WUHU216HW,2013-01-03 05:59:00,
2013-01-02 22:04:00,11.2,6.9,30.24,West,270,1.1,1.1,83,0.00,,,0.00,WUHU216HW,2013-01-03 06:04:00,
2013-01-02 22:09:00,11.2,6.9,30.24,WSW,248,0.4,1.3,83,0.00,,,0.00,WUHU216HW,2013-01-03 06:09:00,
2013-01-02 22:14:00,11.2,6.9,30.24,West,270,0.7,1.3,83,0.00,,,0.00,WUHU216HW,2013-01-03 06:14:00,
2013-01-02 22:19:00,11.0,6.8,30.24,West,270,1.1,1.1,83,0.00,,,0.00,WUHU216HW,2013-01-03 06:19:00,
2013-01-02 22:24:00,10.6,6.4,30.24,WSW,248,0.4,1.1,83,0.00,,,0.00,WUHU216HW,2013-01-03 06:24:00,
2013-01-02 22:29:00,10.6,6.4,30.24,WSW,248,0.2,0.7,83,0.00,,,0.00,WUHU216HW,2013-01-03 06:29:00,
2013-01-02 22:34:00,10.6,6.4,30.24,WSW,248,0.4,0.7,83,0.00,,,0.00,WUHU216HW,2013-01-03 06:34:00,
2013-01-02 22:39:00,10.6,6.4,30.24,WSW,248,0.2,1.6,83,0.00,,,0.00,WUHU216HW,2013-01-03 06:39:00,
2013-01-02 22:44:00,10.6,6.4,30.24,NW,315,0.2,1.6,83,0.00,,,0.00,WUHU216HW,2013-01-03 06:44:00,
2013-01-02 22:49:00,10.3,6.0,30.24,NW,315,0.4,0.7,83,0.00,,,0.00,WUHU216HW,2013-01-03 06:49:00,
2013-01-02 22:54:00,10.1,5.9,30.23,West,270,0.0,0.7,83,0.00,,,0.00,WUHU216HW,2013-01-03 06:54:00,
2013-01-02 22:59:00,10.1,5.9,30.23,WSW,248,0.0,0.7,83,0.00,,,0.00,WUHU216HW,2013-01-03 06:59:00,
2013-01-02 23:04:00,10.3,6.0,30.23,WNW,293,0.2,0.4,83,0.00,,,0.00,WUHU216HW,2013-01-03 07:04:00,
2013-01-02 23:09:00,10.1,5.9,30.23,North,0,0.2,0.4,83,0.00,,,0.00,WUHU216HW,2013-01-03 07:09:00,
2013-01-02 23:14:00,10.3,6.0,30.23,WNW,293,0.0,0.2,83,0.00,,,0.00,WUHU216HW,2013-01-03 07:14:00,
2013-01-02 23:19:00,10.4,6.2,30.23,SW,225,0.0,0.0,83,0.00,,,0.00,WUHU216HW,2013-01-03 07:19:00,
2013-01-02 23:24:00,10.4,6.2,30.23,SW,225,0.0,0.0,83,0.00,,,0.00,WUHU216HW,2013-01-03 07:24:00,
2013-01-02 23:30:00,10.4,6.2,30.22,SW,225,0.0,0.0,83,0.00,,,0.00,WUHU216HW,2013-01-03 07:30:00,
2013-01-02 23:35:00,10.4,6.2,30.22,SW,225,0.2,0.2,83,0.00,,,0.00,WUHU216HW,2013-01-03 07:35:00,
2013-01-02 23:40:00,10.4,6.2,30.23,SSW,203,0.0,0.4,83,0.00,,,0.00,WUHU216HW,2013-01-03 07:40:00,
2013-01-02 23:45:00,10.4,6.2,30.22,West,270,0.7,0.7,83,0.00,,,0.00,WUHU216HW,2013-01-03 07:45:00,
2013-01-02 23:50:00,10.4,6.2,30.22,West,270,0.4,0.7,83,0.00,,,0.00,WUHU216HW,2013-01-03 07:50:00,
2013-01-02 23:55:00,10.4,6.2,30.22,WSW,248,0.4,1.1,83,0.00,,,0.00,WUHU216HW,2013-01-03 07:55:00,